sensor_id;sensor_type;location;lat;lon;timestamp;pressure;altitude;pressure_sealevel;temperature;humidity
62418;BME280;48456;54.242;10.280;2024-03-29T00:02:24;98947.78;;;5.53;100.00
62418;BME280;48456;54.242;10.280;2024-03-29T00:04:49;98958.25;;;5.56;100.00
62418;BME280;48456;54.242;10.280;2024-03-29T00:07:15;98962.59;;;5.57;100.00
62418;BME280;48456;54.242;10.280;2024-03-29T00:09:41;98963.44;;;5.61;100.00
62418;BME280;48456;54.242;10.280;2024-03-29T00:12:07;98958.19;;;5.63;100.00
62418;BME280;48456;54.242;10.280;2024-03-29T00:14:32;98958.19;;;5.63;100.00
62418;BME280;48456;54.242;10.280;2024-03-29T00:16:59;98962.53;;;5.64;100.00
62418;BME280;48456;54.242;10.280;2024-03-29T00:19:28;98972.16;;;5.63;100.00
62418;BME280;48456;54.242;10.280;2024-03-29T00:21:54;98976.56;;;5.61;100.00
62418;BME280;48456;54.242;10.280;2024-03-29T00:24:20;98977.50;;;5.57;100.00
62418;BME280;48456;54.242;10.280;2024-03-29T00:26:45;98976.69;;;5.52;100.00
62418;BME280;48456;54.242;10.280;2024-03-29T00:29:11;98977.66;;;5.44;100.00
62418;BME280;48456;54.242;10.280;2024-03-29T00:31:39;98982.03;;;5.41;100.00
62418;BME280;48456;54.242;10.280;2024-03-29T00:34:04;98982.97;;;5.37;100.00
62418;BME280;48456;54.242;10.280;2024-03-29T00:36:31;98982.16;;;5.33;100.00
62418;BME280;48456;54.242;10.280;2024-03-29T00:38:56;98988.31;;;5.29;100.00
62418;BME280;48456;54.242;10.280;2024-03-29T00:41:22;98988.34;;;5.27;100.00
62418;BME280;48456;54.242;10.280;2024-03-29T00:43:47;98987.44;;;5.30;100.00
62418;BME280;48456;54.242;10.280;2024-03-29T00:46:14;98986.56;;;5.31;100.00
62418;BME280;48456;54.242;10.280;2024-03-29T00:48:39;98985.69;;;5.29;100.00
62418;BME280;48456;54.242;10.280;2024-03-29T00:51:05;98990.94;;;5.29;100.00
62418;BME280;48456;54.242;10.280;2024-03-29T00:53:30;98986.59;;;5.28;100.00
62418;BME280;48456;54.242;10.280;2024-03-29T00:55:55;98989.22;;;5.26;100.00
62418;BME280;48456;54.242;10.280;2024-03-29T00:58:21;98986.63;;;5.25;100.00
62418;BME280;48456;54.242;10.280;2024-03-29T01:00:46;98992.75;;;5.24;100.00
62418;BME280;48456;54.242;10.280;2024-03-29T01:03:12;98998.00;;;5.24;100.00
62418;BME280;48456;54.242;10.280;2024-03-29T01:05:37;98994.50;;;5.22;100.00
62418;BME280;48456;54.242;10.280;2024-03-29T01:08:04;98990.16;;;5.20;100.00
62418;BME280;48456;54.242;10.280;2024-03-29T01:10:29;98991.06;;;5.19;100.00
62418;BME280;48456;54.242;10.280;2024-03-29T01:12:55;99003.28;;;5.19;100.00
62418;BME280;48456;54.242;10.280;2024-03-29T01:15:20;98997.22;;;5.17;100.00
62418;BME280;48456;54.242;10.280;2024-03-29T01:17:46;98991.09;;;5.15;100.00
62418;BME280;48456;54.242;10.280;2024-03-29T01:20:11;99001.59;;;5.13;100.00
62418;BME280;48456;54.242;10.280;2024-03-29T01:22:37;98988.53;;;5.12;100.00
62418;BME280;48456;54.242;10.280;2024-03-29T01:25:03;98998.97;;;5.15;100.00
62418;BME280;48456;54.242;10.280;2024-03-29T01:27:33;99000.75;;;5.13;100.00
62418;BME280;48456;54.242;10.280;2024-03-29T01:29:58;99012.13;;;5.12;100.00
62418;BME280;48456;54.242;10.280;2024-03-29T01:32:24;99004.28;;;5.10;100.00
62418;BME280;48456;54.242;10.280;2024-03-29T01:34:49;99008.66;;;5.06;100.00
62418;BME280;48456;54.242;10.280;2024-03-29T01:37:15;98999.94;;;5.06;100.00
62418;BME280;48456;54.242;10.280;2024-03-29T01:39:41;99001.69;;;5.05;100.00
62418;BME280;48456;54.242;10.280;2024-03-29T01:42:07;99005.19;;;5.04;100.00
62418;BME280;48456;54.242;10.280;2024-03-29T01:44:32;99007.00;;;4.99;100.00
62418;BME280;48456;54.242;10.280;2024-03-29T01:46:58;99007.00;;;4.99;100.00
62418;BME280;48456;54.242;10.280;2024-03-29T01:49:23;98999.97;;;5.01;100.00
62418;BME280;48456;54.242;10.280;2024-03-29T01:51:49;99007.88;;;4.98;100.00
62418;BME280;48456;54.242;10.280;2024-03-29T01:54:14;99007.91;;;4.95;100.00
62418;BME280;48456;54.242;10.280;2024-03-29T01:56:40;99005.28;;;4.97;100.00
62418;BME280;48456;54.242;10.280;2024-03-29T01:59:08;99012.25;;;4.98;100.00
62418;BME280;48456;54.242;10.280;2024-03-29T02:01:36;99008.78;;;4.96;100.00
62418;BME280;48456;54.242;10.280;2024-03-29T02:04:03;99007.03;;;4.94;100.00
62418;BME280;48456;54.242;10.280;2024-03-29T02:06:29;99007.94;;;4.92;100.00
62418;BME280;48456;54.242;10.280;2024-03-29T02:08:55;99001.81;;;4.91;100.00
62418;BME280;48456;54.242;10.280;2024-03-29T02:11:21;99005.34;;;4.87;100.00
62418;BME280;48456;54.242;10.280;2024-03-29T02:13:47;99008.03;;;4.86;100.00
62418;BME280;48456;54.242;10.280;2024-03-29T02:16:13;99005.41;;;4.84;100.00
62418;BME280;48456;54.242;10.280;2024-03-29T02:18:38;99020.25;;;4.82;100.00
62418;BME280;48456;54.242;10.280;2024-03-29T02:21:04;99016.81;;;4.78;100.00
62418;BME280;48456;54.242;10.280;2024-03-29T02:23:30;99014.22;;;4.74;100.00
62418;BME280;48456;54.242;10.280;2024-03-29T02:25:57;99015.13;;;4.71;100.00
62418;BME280;48456;54.242;10.280;2024-03-29T02:28:24;99013.41;;;4.70;100.00
62418;BME280;48456;54.242;10.280;2024-03-29T02:30:50;99017.81;;;4.65;100.00
62418;BME280;48456;54.242;10.280;2024-03-29T02:33:15;99014.31;;;4.63;100.00
62418;BME280;48456;54.242;10.280;2024-03-29T02:35:41;99019.56;;;4.61;100.00
62418;BME280;48456;54.242;10.280;2024-03-29T02:38:06;99021.34;;;4.61;100.00
62418;BME280;48456;54.242;10.280;2024-03-29T02:40:32;99024.84;;;4.58;100.00
62418;BME280;48456;54.242;10.280;2024-03-29T02:42:57;99027.50;;;4.57;100.00
62418;BME280;48456;54.242;10.280;2024-03-29T02:45:23;99028.38;;;4.54;100.00
62418;BME280;48456;54.242;10.280;2024-03-29T02:47:48;99029.28;;;4.50;100.00
62418;BME280;48456;54.242;10.280;2024-03-29T02:50:14;99031.91;;;4.48;100.00
62418;BME280;48456;54.242;10.280;2024-03-29T02:52:40;99026.69;;;4.44;100.00
62418;BME280;48456;54.242;10.280;2024-03-29T02:55:06;99036.31;;;4.43;100.00
62418;BME280;48456;54.242;10.280;2024-03-29T02:57:31;99024.13;;;4.39;100.00
62418;BME280;48456;54.242;10.280;2024-03-29T02:59:57;99017.16;;;4.38;100.00
62418;BME280;48456;54.242;10.280;2024-03-29T03:02:22;99025.88;;;4.40;100.00
62418;BME280;48456;54.242;10.280;2024-03-29T03:04:48;99025.00;;;4.39;100.00
62418;BME280;48456;54.242;10.280;2024-03-29T03:07:13;99026.78;;;4.36;100.00
62418;BME280;48456;54.242;10.280;2024-03-29T03:09:57;99029.38;;;4.36;100.00
62418;BME280;48456;54.242;10.280;2024-03-29T03:12:42;99030.25;;;4.36;100.00
62418;BME280;48456;54.242;10.280;2024-03-29T03:15:08;99038.09;;;4.38;100.00
62418;BME280;48456;54.242;10.280;2024-03-29T03:17:33;99037.25;;;4.37;100.00
62418;BME280;48456;54.242;10.280;2024-03-29T03:19:59;99034.63;;;4.36;100.00
62418;BME280;48456;54.242;10.280;2024-03-29T03:22:24;99039.88;;;4.34;100.00
62418;BME280;48456;54.242;10.280;2024-03-29T03:24:50;99037.25;;;4.33;100.00
62418;BME280;48456;54.242;10.280;2024-03-29T03:27:15;99040.75;;;4.35;100.00
62418;BME280;48456;54.242;10.280;2024-03-29T03:29:41;99027.66;;;4.33;100.00
62418;BME280;48456;54.242;10.280;2024-03-29T03:32:06;99028.50;;;4.34;100.00
62418;BME280;48456;54.242;10.280;2024-03-29T03:34:32;99023.31;;;4.31;100.00
62418;BME280;48456;54.242;10.280;2024-03-29T03:36:58;99022.44;;;4.28;100.00
62418;BME280;48456;54.242;10.280;2024-03-29T03:39:23;99022.47;;;4.27;100.00
62418;BME280;48456;54.242;10.280;2024-03-29T03:41:49;99012.00;;;4.25;100.00
62418;BME280;48456;54.242;10.280;2024-03-29T03:44:15;99007.66;;;4.23;100.00
62418;BME280;48456;54.242;10.280;2024-03-29T03:46:41;98996.34;;;4.19;100.00
62418;BME280;48456;54.242;10.280;2024-03-29T03:49:06;98998.97;;;4.19;100.00
62418;BME280;48456;54.242;10.280;2024-03-29T03:51:32;98998.97;;;4.18;100.00
62418;BME280;48456;54.242;10.280;2024-03-29T03:53:57;98990.28;;;4.15;100.00
62418;BME280;48456;54.242;10.280;2024-03-29T03:56:22;99000.75;;;4.12;100.00
62418;BME280;48456;54.242;10.280;2024-03-29T03:58:48;98999.00;;;4.14;100.00
62418;BME280;48456;54.242;10.280;2024-03-29T04:01:13;99010.34;;;4.15;100.00
62418;BME280;48456;54.242;10.280;2024-03-29T04:03:39;99015.56;;;4.15;100.00
62418;BME280;48456;54.242;10.280;2024-03-29T04:06:05;99008.56;;;4.17;100.00
62418;BME280;48456;54.242;10.280;2024-03-29T04:08:31;99017.31;;;4.14;100.00
62418;BME280;48456;54.242;10.280;2024-03-29T04:10:56;99011.22;;;4.12;100.00
62418;BME280;48456;54.242;10.280;2024-03-29T04:13:22;99014.69;;;4.14;100.00
62418;BME280;48456;54.242;10.280;2024-03-29T04:15:47;99027.78;;;4.14;100.00
62418;BME280;48456;54.242;10.280;2024-03-29T04:18:13;99037.34;;;4.17;100.00
62418;BME280;48456;54.242;10.280;2024-03-29T04:20:39;99046.06;;;4.21;100.00
62418;BME280;48456;54.242;10.280;2024-03-29T04:23:05;99058.28;;;4.20;100.00
62418;BME280;48456;54.242;10.280;2024-03-29T04:25:30;99056.53;;;4.21;100.00
62418;BME280;48456;54.242;10.280;2024-03-29T04:27:56;99058.28;;;4.20;100.00
62418;BME280;48456;54.242;10.280;2024-03-29T04:30:21;99054.78;;;4.23;100.00
62418;BME280;48456;54.242;10.280;2024-03-29T04:32:47;99059.13;;;4.25;100.00
62418;BME280;48456;54.242;10.280;2024-03-29T04:35:12;99060.00;;;4.24;100.00
62418;BME280;48456;54.242;10.280;2024-03-29T04:37:38;99056.50;;;4.27;100.00
62418;BME280;48456;54.242;10.280;2024-03-29T04:40:03;99046.91;;;4.27;100.00
62418;BME280;48456;54.242;10.280;2024-03-29T04:42:29;99039.94;;;4.26;100.00
62418;BME280;48456;54.242;10.280;2024-03-29T04:44:54;99043.47;;;4.19;100.00
62418;BME280;48456;54.242;10.280;2024-03-29T04:47:20;99044.34;;;4.20;100.00
62418;BME280;48456;54.242;10.280;2024-03-29T04:49:46;99030.38;;;4.18;100.00
62418;BME280;48456;54.242;10.280;2024-03-29T04:52:11;99030.38;;;4.16;100.00
62418;BME280;48456;54.242;10.280;2024-03-29T04:54:37;99025.16;;;4.14;100.00
62418;BME280;48456;54.242;10.280;2024-03-29T04:57:02;99030.41;;;4.14;100.00
62418;BME280;48456;54.242;10.280;2024-03-29T04:59:31;99031.28;;;4.15;100.00
62418;BME280;48456;54.242;10.280;2024-03-29T05:01:58;99034.78;;;4.15;100.00
62418;BME280;48456;54.242;10.280;2024-03-29T05:04:23;99026.03;;;4.18;100.00
62418;BME280;48456;54.242;10.280;2024-03-29T05:06:55;99030.38;;;4.21;100.00
62418;BME280;48456;54.242;10.280;2024-03-29T05:09:21;99031.22;;;4.24;100.00
62418;BME280;48456;54.242;10.280;2024-03-29T05:11:47;99043.41;;;4.28;100.00
62418;BME280;48456;54.242;10.280;2024-03-29T05:14:16;99045.13;;;4.31;100.00
62418;BME280;48456;54.242;10.280;2024-03-29T05:16:45;99045.13;;;4.33;100.00
62418;BME280;48456;54.242;10.280;2024-03-29T05:19:11;99049.47;;;4.32;100.00
62418;BME280;48456;54.242;10.280;2024-03-29T05:21:37;99055.56;;;4.37;100.00
62418;BME280;48456;54.242;10.280;2024-03-29T05:24:02;99058.13;;;4.40;100.00
62418;BME280;48456;54.242;10.280;2024-03-29T05:26:27;99059.03;;;4.38;100.00
62418;BME280;48456;54.242;10.280;2024-03-29T05:28:53;99070.31;;;4.45;100.00
62418;BME280;48456;54.242;10.280;2024-03-29T05:31:22;99070.31;;;4.49;100.00
62418;BME280;48456;54.242;10.280;2024-03-29T05:33:48;99076.38;;;4.54;100.00
62418;BME280;48456;54.242;10.280;2024-03-29T05:36:13;99079.88;;;4.55;100.00
62418;BME280;48456;54.242;10.280;2024-03-29T05:38:39;99082.47;;;4.57;100.00
62418;BME280;48456;54.242;10.280;2024-03-29T05:41:05;99080.69;;;4.62;100.00
62418;BME280;48456;54.242;10.280;2024-03-29T05:43:31;99084.19;;;4.62;100.00
62418;BME280;48456;54.242;10.280;2024-03-29T05:45:56;99097.22;;;4.67;100.00
62418;BME280;48456;54.242;10.280;2024-03-29T05:48:22;99092.88;;;4.67;100.00
62418;BME280;48456;54.242;10.280;2024-03-29T05:50:48;99086.72;;;4.72;100.00
62418;BME280;48456;54.242;10.280;2024-03-29T05:53:13;99093.69;;;4.73;100.00
62418;BME280;48456;54.242;10.280;2024-03-29T05:55:39;99097.13;;;4.79;100.00
62418;BME280;48456;54.242;10.280;2024-03-29T05:58:04;99111.13;;;4.78;100.00
62418;BME280;48456;54.242;10.280;2024-03-29T06:00:31;99107.59;;;4.83;100.00
62418;BME280;48456;54.242;10.280;2024-03-29T06:02:58;99111.97;;;4.82;100.00
62418;BME280;48456;54.242;10.280;2024-03-29T06:05:24;99108.41;;;4.92;100.00
62418;BME280;48456;54.242;10.280;2024-03-29T06:07:49;99118.00;;;4.92;100.00
62418;BME280;48456;54.242;10.280;2024-03-29T06:10:15;99116.25;;;4.92;100.00
62418;BME280;48456;54.242;10.280;2024-03-29T06:12:44;99119.72;;;4.96;100.00
62418;BME280;48456;54.242;10.280;2024-03-29T06:15:09;99116.19;;;5.00;100.00
62418;BME280;48456;54.242;10.280;2024-03-29T06:17:53;99124.03;;;5.03;100.00
62418;BME280;48456;54.242;10.280;2024-03-29T06:20:19;99103.00;;;5.10;100.00
62418;BME280;48456;54.242;10.280;2024-03-29T06:22:44;99105.59;;;5.11;100.00
62418;BME280;48456;54.242;10.280;2024-03-29T06:25:10;99116.06;;;5.13;100.00
62418;BME280;48456;54.242;10.280;2024-03-29T06:27:36;99113.44;;;5.13;100.00
62418;BME280;48456;54.242;10.280;2024-03-29T06:30:03;99116.88;;;5.21;100.00
62418;BME280;48456;54.242;10.280;2024-03-29T06:32:29;99128.19;;;5.25;100.00
62418;BME280;48456;54.242;10.280;2024-03-29T06:34:55;99138.69;;;5.23;100.00
62418;BME280;48456;54.242;10.280;2024-03-29T06:37:21;99137.84;;;5.19;100.00
62418;BME280;48456;54.242;10.280;2024-03-29T06:39:47;99137.78;;;5.27;100.00
62418;BME280;48456;54.242;10.280;2024-03-29T06:42:13;99150.03;;;5.25;100.00
62418;BME280;48456;54.242;10.280;2024-03-29T06:44:39;99136.03;;;5.29;100.00
62418;BME280;48456;54.242;10.280;2024-03-29T06:47:05;99141.19;;;5.34;100.00
62418;BME280;48456;54.242;10.280;2024-03-29T06:49:30;99150.75;;;5.41;100.00
62418;BME280;48456;54.242;10.280;2024-03-29T06:51:58;99159.44;;;5.45;100.00
62418;BME280;48456;54.242;10.280;2024-03-29T06:54:25;99163.03;;;5.39;100.00
62418;BME280;48456;54.242;10.280;2024-03-29T06:56:55;99167.31;;;5.48;100.00
62418;BME280;48456;54.242;10.280;2024-03-29T06:59:20;99177.72;;;5.56;100.00
62418;BME280;48456;54.242;10.280;2024-03-29T07:01:46;99181.22;;;5.55;100.00
62418;BME280;48456;54.242;10.280;2024-03-29T07:04:21;99166.28;;;5.63;100.00
62418;BME280;48456;54.242;10.280;2024-03-29T07:06:47;99179.47;;;5.55;100.00
62418;BME280;48456;54.242;10.280;2024-03-29T07:09:15;99160.19;;;5.59;100.00
62418;BME280;48456;54.242;10.280;2024-03-29T07:11:41;99154.06;;;5.61;100.00
62418;BME280;48456;54.242;10.280;2024-03-29T07:14:06;99151.44;;;5.61;100.00
62418;BME280;48456;54.242;10.280;2024-03-29T07:16:32;99153.91;;;5.76;100.00
62418;BME280;48456;54.242;10.280;2024-03-29T07:18:58;99179.34;;;5.71;100.00
62418;BME280;48456;54.242;10.280;2024-03-29T07:21:24;99166.91;;;5.87;100.00
62418;BME280;48456;54.242;10.280;2024-03-29T07:23:49;99176.50;;;5.88;100.00
62418;BME280;48456;54.242;10.280;2024-03-29T07:26:15;99182.56;;;5.93;100.00
62418;BME280;48456;54.242;10.280;2024-03-29T07:28:40;99174.75;;;5.89;100.00
62418;BME280;48456;54.242;10.280;2024-03-29T07:31:06;99187.03;;;5.87;100.00
62418;BME280;48456;54.242;10.280;2024-03-29T07:33:35;99175.47;;;6.02;100.00
62418;BME280;48456;54.242;10.280;2024-03-29T07:36:01;99199.97;;;6.05;100.00
62418;BME280;48456;54.242;10.280;2024-03-29T07:38:28;99200.81;;;6.07;100.00
62418;BME280;48456;54.242;10.280;2024-03-29T07:40:54;99212.13;;;6.13;100.00
62418;BME280;48456;54.242;10.280;2024-03-29T07:43:21;99194.38;;;6.33;100.00
62418;BME280;48456;54.242;10.280;2024-03-29T07:45:46;99211.03;;;6.34;100.00
62418;BME280;48456;54.242;10.280;2024-03-29T07:48:12;99213.50;;;6.46;100.00
62418;BME280;48456;54.242;10.280;2024-03-29T07:50:42;99222.22;;;6.47;100.00
62418;BME280;48456;54.242;10.280;2024-03-29T07:53:07;99218.72;;;6.48;100.00
62418;BME280;48456;54.242;10.280;2024-03-29T07:55:34;99218.66;;;6.53;100.00
62418;BME280;48456;54.242;10.280;2024-03-29T07:58:00;99226.69;;;6.39;100.00
62418;BME280;48456;54.242;10.280;2024-03-29T08:00:26;99226.53;;;6.51;100.00
62418;BME280;48456;54.242;10.280;2024-03-29T08:02:51;99223.56;;;6.78;100.00
62418;BME280;48456;54.242;10.280;2024-03-29T08:05:21;99229.47;;;6.92;100.00
62418;BME280;48456;54.242;10.280;2024-03-29T08:07:47;99234.03;;;6.82;100.00
62418;BME280;48456;54.242;10.280;2024-03-29T08:10:13;99253.38;;;6.78;100.00
62418;BME280;48456;54.242;10.280;2024-03-29T08:12:38;99247.34;;;6.70;100.00
62418;BME280;48456;54.242;10.280;2024-03-29T08:15:04;99260.38;;;6.76;100.00
62418;BME280;48456;54.242;10.280;2024-03-29T08:17:30;99261.22;;;6.80;100.00
62418;BME280;48456;54.242;10.280;2024-03-29T08:19:55;99261.72;;;7.07;100.00
62418;BME280;48456;54.242;10.280;2024-03-29T08:22:21;99283.75;;;6.98;100.00
62418;BME280;48456;54.242;10.280;2024-03-29T08:24:46;99279.38;;;6.97;100.00
62418;BME280;48456;54.242;10.280;2024-03-29T08:27:12;99283.75;;;6.96;100.00
62418;BME280;48456;54.242;10.280;2024-03-29T08:29:37;99288.88;;;7.07;100.00
62418;BME280;48456;54.242;10.280;2024-03-29T08:32:03;99306.59;;;6.93;100.00
62418;BME280;48456;54.242;10.280;2024-03-29T08:34:29;99304.09;;;6.85;100.00
62418;BME280;48456;54.242;10.280;2024-03-29T08:37:02;99301.19;;;7.05;100.00
62418;BME280;48456;54.242;10.280;2024-03-29T08:39:28;99306.28;;;7.14;100.00
62418;BME280;48456;54.242;10.280;2024-03-29T08:41:54;99311.78;;;6.99;100.00
62418;BME280;48456;54.242;10.280;2024-03-29T08:44:20;99316.47;;;7.38;100.00
62418;BME280;48456;54.242;10.280;2024-03-29T08:46:45;99359.84;;;7.72;100.00
62418;BME280;48456;54.242;10.280;2024-03-29T08:49:11;99365.59;;;7.96;100.00
62418;BME280;48456;54.242;10.280;2024-03-29T08:51:36;99351.22;;;8.14;100.00
62418;BME280;48456;54.242;10.280;2024-03-29T08:54:02;99352.53;;;8.38;100.00
62418;BME280;48456;54.242;10.280;2024-03-29T08:56:31;99351.47;;;8.50;100.00
62418;BME280;48456;54.242;10.280;2024-03-29T08:58:56;99361.84;;;8.61;100.00
62418;BME280;48456;54.242;10.280;2024-03-29T09:01:24;99365.41;;;8.58;100.00
62418;BME280;48456;54.242;10.280;2024-03-29T09:03:49;99351.34;;;8.58;100.00
62418;BME280;48456;54.242;10.280;2024-03-29T09:06:15;99354.69;;;8.66;100.00
62418;BME280;48456;54.242;10.280;2024-03-29T09:08:42;99337.97;;;8.67;100.00
62418;BME280;48456;54.242;10.280;2024-03-29T09:11:08;99341.28;;;8.77;100.00
62418;BME280;48456;54.242;10.280;2024-03-29T09:13:36;99342.72;;;8.94;100.00
62418;BME280;48456;54.242;10.280;2024-03-29T09:16:03;99340.75;;;9.04;100.00
62418;BME280;48456;54.242;10.280;2024-03-29T09:18:29;99342.31;;;9.13;100.00
62418;BME280;48456;54.242;10.280;2024-03-29T09:20:56;99350.94;;;9.21;100.00
62418;BME280;48456;54.242;10.280;2024-03-29T09:23:24;99354.19;;;9.32;100.00
62418;BME280;48456;54.242;10.280;2024-03-29T09:25:51;99359.50;;;9.31;100.00
62418;BME280;48456;54.242;10.280;2024-03-29T09:28:19;99366.78;;;9.19;100.00
62418;BME280;48456;54.242;10.280;2024-03-29T09:30:47;99364.84;;;9.28;100.00
62418;BME280;48456;54.242;10.280;2024-03-29T09:33:14;99371.03;;;9.27;100.00
62418;BME280;48456;54.242;10.280;2024-03-29T09:35:40;99363.31;;;9.19;100.00
62418;BME280;48456;54.242;10.280;2024-03-29T09:38:07;99366.00;;;9.16;100.00
62418;BME280;48456;54.242;10.280;2024-03-29T09:40:33;99359.00;;;9.15;100.00
62418;BME280;48456;54.242;10.280;2024-03-29T09:43:00;99356.47;;;9.08;100.00
62418;BME280;48456;54.242;10.280;2024-03-29T09:45:36;99358.28;;;9.06;100.00
62418;BME280;48456;54.242;10.280;2024-03-29T09:48:03;99351.22;;;9.07;100.00
62418;BME280;48456;54.242;10.280;2024-03-29T09:50:31;99352.13;;;9.06;100.00
62418;BME280;48456;54.242;10.280;2024-03-29T09:53:00;99362.66;;;9.07;100.00
62418;BME280;48456;54.242;10.280;2024-03-29T09:55:28;99360.97;;;9.03;100.00
62418;BME280;48456;54.242;10.280;2024-03-29T09:57:55;99354.00;;;9.01;100.00
62418;BME280;48456;54.242;10.280;2024-03-29T10:00:21;99354.94;;;8.98;100.00
62418;BME280;48456;54.242;10.280;2024-03-29T10:02:48;99343.63;;;8.93;100.00
62418;BME280;48456;54.242;10.280;2024-03-29T10:05:16;99349.81;;;8.90;100.00
62418;BME280;48456;54.242;10.280;2024-03-29T10:07:44;99340.31;;;8.83;100.00
62418;BME280;48456;54.242;10.280;2024-03-29T10:10:16;99342.13;;;8.79;100.00
62418;BME280;48456;54.242;10.280;2024-03-29T10:12:42;99342.19;;;8.78;100.00
62418;BME280;48456;54.242;10.280;2024-03-29T10:15:10;99330.84;;;8.71;100.00
62418;BME280;48456;54.242;10.280;2024-03-29T10:17:45;99314.38;;;8.63;100.00
62418;BME280;48456;54.242;10.280;2024-03-29T10:20:14;99315.31;;;8.58;100.00
62418;BME280;48456;54.242;10.280;2024-03-29T10:22:45;99305.69;;;8.56;100.00
62418;BME280;48456;54.242;10.280;2024-03-29T10:25:14;99296.91;;;8.57;100.00
62418;BME280;48456;54.242;10.280;2024-03-29T10:27:42;99303.94;;;8.55;100.00
62418;BME280;48456;54.242;10.280;2024-03-29T10:30:08;99307.44;;;8.57;100.00
62418;BME280;48456;54.242;10.280;2024-03-29T10:32:36;99317.06;;;8.58;100.00
62418;BME280;48456;54.242;10.280;2024-03-29T10:35:02;99318.78;;;8.61;100.00
62418;BME280;48456;54.242;10.280;2024-03-29T10:37:29;99316.88;;;8.67;100.00
62418;BME280;48456;54.242;10.280;2024-03-29T10:40:00;99318.69;;;8.65;100.00
62418;BME280;48456;54.242;10.280;2024-03-29T10:42:29;99316.00;;;8.67;100.00
62418;BME280;48456;54.242;10.280;2024-03-29T10:44:59;99304.47;;;8.73;100.00
62418;BME280;48456;54.242;10.280;2024-03-29T10:47:24;99303.63;;;8.72;100.00
62418;BME280;48456;54.242;10.280;2024-03-29T10:49:51;99299.16;;;8.74;100.00
62418;BME280;48456;54.242;10.280;2024-03-29T10:52:17;99283.31;;;8.76;100.00
62418;BME280;48456;54.242;10.280;2024-03-29T10:54:46;99287.72;;;8.75;100.00
62418;BME280;48456;54.242;10.280;2024-03-29T10:57:33;99288.63;;;8.74;100.00
62418;BME280;48456;54.242;10.280;2024-03-29T11:02:35;99297.53;;;8.68;100.00
62418;BME280;48456;54.242;10.280;2024-03-29T11:05:06;99301.88;;;8.71;100.00
62418;BME280;48456;54.242;10.280;2024-03-29T11:07:34;99293.06;;;8.72;100.00
62418;BME280;48456;54.242;10.280;2024-03-29T11:10:01;99277.31;;;8.69;100.00
62418;BME280;48456;54.242;10.280;2024-03-29T11:12:30;99291.38;;;8.69;100.00
62418;BME280;48456;54.242;10.280;2024-03-29T11:15:03;99294.00;;;8.69;100.00
62418;BME280;48456;54.242;10.280;2024-03-29T11:17:31;99295.94;;;8.61;100.00
62418;BME280;48456;54.242;10.280;2024-03-29T11:19:58;99306.47;;;8.61;100.00
62418;BME280;48456;54.242;10.280;2024-03-29T11:22:25;99296.81;;;8.60;100.00
62418;BME280;48456;54.242;10.280;2024-03-29T11:24:51;99303.91;;;8.58;100.00
62418;BME280;48456;54.242;10.280;2024-03-29T11:27:17;99302.16;;;8.57;100.00
62418;BME280;48456;54.242;10.280;2024-03-29T11:29:44;99296.81;;;8.60;100.00
62418;BME280;48456;54.242;10.280;2024-03-29T11:32:11;99292.41;;;8.61;100.00
62418;BME280;48456;54.242;10.280;2024-03-29T11:34:43;99290.69;;;8.60;100.00
62418;BME280;48456;54.242;10.280;2024-03-29T11:37:14;99302.16;;;8.58;100.00
62418;BME280;48456;54.242;10.280;2024-03-29T11:39:40;99305.69;;;8.56;100.00
62418;BME280;48456;54.242;10.280;2024-03-29T11:42:11;99312.75;;;8.52;100.00
62418;BME280;48456;54.242;10.280;2024-03-29T11:44:37;99315.25;;;8.62;100.00
62418;BME280;48456;54.242;10.280;2024-03-29T11:47:02;99307.25;;;8.66;100.00
62418;BME280;48456;54.242;10.280;2024-03-29T11:49:32;99306.28;;;8.70;100.00
62418;BME280;48456;54.242;10.280;2024-03-29T11:52:04;99308.00;;;8.71;100.00
62418;BME280;48456;54.242;10.280;2024-03-29T11:54:36;99303.69;;;8.67;100.00
62418;BME280;48456;54.242;10.280;2024-03-29T11:57:04;99304.59;;;8.68;100.00
62418;BME280;48456;54.242;10.280;2024-03-29T11:59:30;99299.31;;;8.68;100.00
62418;BME280;48456;54.242;10.280;2024-03-29T12:01:56;99296.56;;;8.73;100.00
62418;BME280;48456;54.242;10.280;2024-03-29T12:04:21;99292.19;;;8.71;100.00
62418;BME280;48456;54.242;10.280;2024-03-29T12:06:48;99286.00;;;8.73;100.00
62418;BME280;48456;54.242;10.280;2024-03-29T12:09:14;99289.56;;;8.71;100.00
62418;BME280;48456;54.242;10.280;2024-03-29T12:11:39;99285.38;;;8.63;100.00
62418;BME280;48456;54.242;10.280;2024-03-29T12:14:15;99292.19;;;8.71;100.00
62418;BME280;48456;54.242;10.280;2024-03-29T12:16:44;99300.91;;;8.75;100.00
62418;BME280;48456;54.242;10.280;2024-03-29T12:19:21;99294.66;;;8.79;100.00
62418;BME280;48456;54.242;10.280;2024-03-29T12:21:46;99292.34;;;9.06;100.00
62418;BME280;48456;54.242;10.280;2024-03-29T12:24:12;99292.84;;;9.22;100.00
62418;BME280;48456;54.242;10.280;2024-03-29T12:26:38;99287.97;;;9.43;100.00
62418;BME280;48456;54.242;10.280;2024-03-29T12:29:03;99278.03;;;9.55;100.00
62418;BME280;48456;54.242;10.280;2024-03-29T12:31:29;99283.59;;;9.79;100.00
62418;BME280;48456;54.242;10.280;2024-03-29T12:33:55;99293.19;;;10.16;100.00
62418;BME280;48456;54.242;10.280;2024-03-29T12:36:24;99296.84;;;10.45;100.00
62418;BME280;48456;54.242;10.280;2024-03-29T12:38:55;99288.81;;;10.80;100.00
62418;BME280;48456;54.242;10.280;2024-03-29T12:41:23;99293.78;;;10.91;100.00
62418;BME280;48456;54.242;10.280;2024-03-29T12:43:52;99296.59;;;10.85;100.00
62418;BME280;48456;54.242;10.280;2024-03-29T12:46:18;99284.66;;;10.71;100.00
62418;BME280;48456;54.242;10.280;2024-03-29T12:48:44;99295.16;;;10.74;100.00
62418;BME280;48456;54.242;10.280;2024-03-29T12:51:10;99292.97;;;10.57;100.00